sensor_id;sensor_type;location;lat;lon;timestamp;pressure;altitude;pressure_sealevel;temperature;humidity
64352;BME280;50680;52.626;-8.668;2023-11-25T00:00:46;102534.44;;;9.62;100.00
64352;BME280;50680;52.626;-8.668;2023-11-25T00:03:14;102525.91;;;9.54;100.00
64352;BME280;50680;52.626;-8.668;2023-11-25T00:05:41;102527.66;;;9.53;100.00
64352;BME280;50680;52.626;-8.668;2023-11-25T00:08:09;102518.25;;;9.45;100.00
64352;BME280;50680;52.626;-8.668;2023-11-25T00:10:36;102531.25;;;9.49;100.00
64352;BME280;50680;52.626;-8.668;2023-11-25T00:13:03;102526.78;;;9.53;100.00
64352;BME280;50680;52.626;-8.668;2023-11-25T00:15:33;102530.22;;;9.55;100.00
64352;BME280;50680;52.626;-8.668;2023-11-25T00:18:00;102530.22;;;9.55;100.00
64352;BME280;50680;52.626;-8.668;2023-11-25T00:20:27;102525.88;;;9.55;100.00
64352;BME280;50680;52.626;-8.668;2023-11-25T00:22:54;102518.00;;;9.55;100.00
64352;BME280;50680;52.626;-8.668;2023-11-25T00:25:21;102522.31;;;9.56;100.00
64352;BME280;50680;52.626;-8.668;2023-11-25T00:27:51;102512.63;;;9.60;100.00
64352;BME280;50680;52.626;-8.668;2023-11-25T00:30:18;102508.41;;;9.54;100.00
64352;BME280;50680;52.626;-8.668;2023-11-25T00:32:45;102506.72;;;9.53;100.00
64352;BME280;50680;52.626;-8.668;2023-11-25T00:35:13;102508.31;;;9.59;100.00
64352;BME280;50680;52.626;-8.668;2023-11-25T00:37:40;102498.72;;;9.58;100.00
64352;BME280;50680;52.626;-8.668;2023-11-25T00:40:08;102497.81;;;9.60;100.00
64352;BME280;50680;52.626;-8.668;2023-11-25T00:42:39;102501.00;;;9.70;100.00
64352;BME280;50680;52.626;-8.668;2023-11-25T00:45:09;102495.16;;;9.62;100.00
64352;BME280;50680;52.626;-8.668;2023-11-25T00:47:41;102496.03;;;9.61;100.00
64352;BME280;50680;52.626;-8.668;2023-11-25T00:50:09;102496.06;;;9.59;100.00
64352;BME280;50680;52.626;-8.668;2023-11-25T00:52:37;102491.53;;;9.66;100.00
64352;BME280;50680;52.626;-8.668;2023-11-25T00:55:05;102483.66;;;9.66;100.00
64352;BME280;50680;52.626;-8.668;2023-11-25T00:57:33;102481.06;;;9.66;100.00
64352;BME280;50680;52.626;-8.668;2023-11-25T01:00:00;102474.78;;;9.72;100.00
64352;BME280;50680;52.626;-8.668;2023-11-25T01:02:27;102480.97;;;9.69;100.00
64352;BME280;50680;52.626;-8.668;2023-11-25T01:04:55;102480.19;;;9.66;100.00
64352;BME280;50680;52.626;-8.668;2023-11-25T01:07:22;102473.84;;;9.74;100.00
64352;BME280;50680;52.626;-8.668;2023-11-25T01:09:49;102482.69;;;9.70;100.00
64352;BME280;50680;52.626;-8.668;2023-11-25T01:12:16;102470.38;;;9.72;100.00
64352;BME280;50680;52.626;-8.668;2023-11-25T01:14:43;102459.25;;;9.66;100.00
64352;BME280;50680;52.626;-8.668;2023-11-25T01:17:09;102456.47;;;9.70;100.00
64352;BME280;50680;52.626;-8.668;2023-11-25T01:19:37;102464.50;;;9.66;100.00
64352;BME280;50680;52.626;-8.668;2023-11-25T01:22:04;102468.00;;;9.65;100.00
64352;BME280;50680;52.626;-8.668;2023-11-25T01:24:31;102461.91;;;9.64;100.00
64352;BME280;50680;52.626;-8.668;2023-11-25T01:26:58;102459.25;;;9.66;100.00
64352;BME280;50680;52.626;-8.668;2023-11-25T01:29:25;102447.03;;;9.65;100.00
64352;BME280;50680;52.626;-8.668;2023-11-25T01:31:52;102456.63;;;9.66;100.00
64352;BME280;50680;52.626;-8.668;2023-11-25T01:34:19;102457.44;;;9.68;100.00
64352;BME280;50680;52.626;-8.668;2023-11-25T01:36:47;102446.25;;;9.61;100.00
64352;BME280;50680;52.626;-8.668;2023-11-25T01:39:14;102445.19;;;9.68;100.00
64352;BME280;50680;52.626;-8.668;2023-11-25T01:41:42;102439.16;;;9.66;100.00
64352;BME280;50680;52.626;-8.668;2023-11-25T01:44:10;102440.88;;;9.67;100.00
64352;BME280;50680;52.626;-8.668;2023-11-25T01:46:40;102438.94;;;9.72;100.00
64352;BME280;50680;52.626;-8.668;2023-11-25T01:49:14;102435.25;;;9.81;100.00
64352;BME280;50680;52.626;-8.668;2023-11-25T01:51:42;102442.25;;;9.79;100.00
64352;BME280;50680;52.626;-8.668;2023-11-25T01:54:14;102440.59;;;9.76;100.00
64352;BME280;50680;52.626;-8.668;2023-11-25T01:56:44;102443.16;;;9.79;100.00
64352;BME280;50680;52.626;-8.668;2023-11-25T01:59:14;102425.66;;;9.80;100.00
64352;BME280;50680;52.626;-8.668;2023-11-25T02:01:43;102428.31;;;9.78;100.00
64352;BME280;50680;52.626;-8.668;2023-11-25T02:04:13;102429.09;;;9.82;100.00
64352;BME280;50680;52.626;-8.668;2023-11-25T02:06:41;102432.75;;;9.76;100.00
64352;BME280;50680;52.626;-8.668;2023-11-25T02:09:08;102425.69;;;9.78;100.00
64352;BME280;50680;52.626;-8.668;2023-11-25T02:14:22;102416.09;;;9.77;100.00
64352;BME280;50680;52.626;-8.668;2023-11-25T02:16:49;102414.38;;;9.78;100.00
64352;BME280;50680;52.626;-8.668;2023-11-25T02:19:17;102421.34;;;9.77;100.00
64352;BME280;50680;52.626;-8.668;2023-11-25T02:21:44;102423.97;;;9.77;100.00
64352;BME280;50680;52.626;-8.668;2023-11-25T02:24:11;102414.34;;;9.79;100.00
64352;BME280;50680;52.626;-8.668;2023-11-25T02:26:39;102409.16;;;9.76;100.00
64352;BME280;50680;52.626;-8.668;2023-11-25T02:29:06;102404.75;;;9.78;100.00
64352;BME280;50680;52.626;-8.668;2023-11-25T02:31:33;102410.13;;;9.72;100.00
64352;BME280;50680;52.626;-8.668;2023-11-25T02:34:00;102415.25;;;9.77;100.00
64352;BME280;50680;52.626;-8.668;2023-11-25T02:36:26;102418.72;;;9.77;100.00
64352;BME280;50680;52.626;-8.668;2023-11-25T02:38:53;102409.09;;;9.79;100.00
64352;BME280;50680;52.626;-8.668;2023-11-25T02:41:20;102406.47;;;9.79;100.00
64352;BME280;50680;52.626;-8.668;2023-11-25T02:43:47;102410.78;;;9.81;100.00
64352;BME280;50680;52.626;-8.668;2023-11-25T02:46:14;102405.69;;;9.76;100.00
64352;BME280;50680;52.626;-8.668;2023-11-25T02:48:41;102403.91;;;9.78;100.00
64352;BME280;50680;52.626;-8.668;2023-11-25T02:51:08;102406.63;;;9.73;100.00
64352;BME280;50680;52.626;-8.668;2023-11-25T02:53:35;102394.50;;;9.71;100.00
64352;BME280;50680;52.626;-8.668;2023-11-25T02:56:02;102408.41;;;9.73;100.00
64352;BME280;50680;52.626;-8.668;2023-11-25T02:58:29;102401.44;;;9.72;100.00
64352;BME280;50680;52.626;-8.668;2023-11-25T03:00:59;102407.63;;;9.69;100.00
64352;BME280;50680;52.626;-8.668;2023-11-25T03:03:35;102405.78;;;9.73;100.00
64352;BME280;50680;52.626;-8.668;2023-11-25T03:06:09;102416.31;;;9.71;100.00
64352;BME280;50680;52.626;-8.668;2023-11-25T03:08:36;102408.44;;;9.71;100.00
64352;BME280;50680;52.626;-8.668;2023-11-25T03:11:05;102405.78;;;9.73;100.00
64352;BME280;50680;52.626;-8.668;2023-11-25T03:13:39;102395.31;;;9.73;100.00
64352;BME280;50680;52.626;-8.668;2023-11-25T03:16:09;102393.47;;;9.76;100.00
64352;BME280;50680;52.626;-8.668;2023-11-25T03:18:37;102396.91;;;9.77;100.00
64352;BME280;50680;52.626;-8.668;2023-11-25T03:21:06;102382.13;;;9.76;100.00
64352;BME280;50680;52.626;-8.668;2023-11-25T03:23:32;102381.25;;;9.75;100.00
64352;BME280;50680;52.626;-8.668;2023-11-25T03:25:59;102375.94;;;9.78;100.00
64352;BME280;50680;52.626;-8.668;2023-11-25T03:28:26;102376.00;;;9.75;100.00
64352;BME280;50680;52.626;-8.668;2023-11-25T03:30:53;102365.63;;;9.72;100.00
64352;BME280;50680;52.626;-8.668;2023-11-25T03:33:21;102376.09;;;9.72;100.00
64352;BME280;50680;52.626;-8.668;2023-11-25T03:35:48;102364.72;;;9.73;100.00
64352;BME280;50680;52.626;-8.668;2023-11-25T03:38:15;102368.19;;;9.74;100.00
64352;BME280;50680;52.626;-8.668;2023-11-25T03:40:42;102364.63;;;9.76;100.00
64352;BME280;50680;52.626;-8.668;2023-11-25T03:43:09;102358.69;;;9.71;100.00
64352;BME280;50680;52.626;-8.668;2023-11-25T03:45:36;102349.19;;;9.67;100.00
64352;BME280;50680;52.626;-8.668;2023-11-25T03:48:03;102352.59;;;9.71;100.00
64352;BME280;50680;52.626;-8.668;2023-11-25T03:50:30;102349.81;;;9.75;100.00
64352;BME280;50680;52.626;-8.668;2023-11-25T03:52:57;102349.09;;;9.70;100.00
64352;BME280;50680;52.626;-8.668;2023-11-25T03:55:24;102347.97;;;9.79;100.00
64352;BME280;50680;52.626;-8.668;2023-11-25T03:57:51;102337.44;;;9.81;100.00
64352;BME280;50680;52.626;-8.668;2023-11-25T04:00:17;102346.31;;;9.76;100.00
64352;BME280;50680;52.626;-8.668;2023-11-25T04:02:46;102335.75;;;9.79;100.00
64352;BME280;50680;52.626;-8.668;2023-11-25T04:05:15;102333.13;;;9.79;100.00
64352;BME280;50680;52.626;-8.668;2023-11-25T04:07:45;102327.03;;;9.77;100.00
64352;BME280;50680;52.626;-8.668;2023-11-25T04:10:13;102332.19;;;9.81;100.00
64352;BME280;50680;52.626;-8.668;2023-11-25T04:12:43;102327.00;;;9.79;100.00
64352;BME280;50680;52.626;-8.668;2023-11-25T04:15:11;102319.19;;;9.77;100.00
64352;BME280;50680;52.626;-8.668;2023-11-25T04:17:39;102317.25;;;9.84;100.00
64352;BME280;50680;52.626;-8.668;2023-11-25T04:20:08;102312.22;;;9.78;100.00
64352;BME280;50680;52.626;-8.668;2023-11-25T04:22:45;102313.72;;;9.85;100.00
64352;BME280;50680;52.626;-8.668;2023-11-25T04:25:13;102317.25;;;9.84;100.00
64352;BME280;50680;52.626;-8.668;2023-11-25T04:27:42;102309.34;;;9.86;100.00
64352;BME280;50680;52.626;-8.668;2023-11-25T04:30:10;102298.94;;;9.83;100.00
64352;BME280;50680;52.626;-8.668;2023-11-25T04:32:38;102306.69;;;9.87;100.00
64352;BME280;50680;52.626;-8.668;2023-11-25T04:35:09;102301.53;;;9.84;100.00
64352;BME280;50680;52.626;-8.668;2023-11-25T04:37:37;102299.06;;;9.79;100.00
64352;BME280;50680;52.626;-8.668;2023-11-25T04:40:04;102300.72;;;9.82;100.00
64352;BME280;50680;52.626;-8.668;2023-11-25T04:42:32;102297.25;;;9.82;100.00
64352;BME280;50680;52.626;-8.668;2023-11-25T04:44:59;102290.28;;;9.81;100.00
64352;BME280;50680;52.626;-8.668;2023-11-25T04:47:27;102291.25;;;9.78;100.00
64352;BME280;50680;52.626;-8.668;2023-11-25T04:49:54;102295.81;;;9.71;100.00
64352;BME280;50680;52.626;-8.668;2023-11-25T04:52:21;102291.91;;;9.55;100.00
64352;BME280;50680;52.626;-8.668;2023-11-25T04:54:48;102296.34;;;9.53;100.00
64352;BME280;50680;52.626;-8.668;2023-11-25T04:57:15;102293.75;;;9.53;100.00
64352;BME280;50680;52.626;-8.668;2023-11-25T04:59:43;102292.94;;;9.51;100.00
64352;BME280;50680;52.626;-8.668;2023-11-25T05:02:10;102296.59;;;9.45;100.00
64352;BME280;50680;52.626;-8.668;2023-11-25T05:04:37;102297.47;;;9.44;100.00
64352;BME280;50680;52.626;-8.668;2023-11-25T05:07:04;102295.88;;;9.40;100.00
64352;BME280;50680;52.626;-8.668;2023-11-25T05:09:31;102303.75;;;9.38;100.00
64352;BME280;50680;52.626;-8.668;2023-11-25T05:11:58;102296.31;;;9.25;100.00
64352;BME280;50680;52.626;-8.668;2023-11-25T05:14:26;102295.34;;;9.27;100.00
64352;BME280;50680;52.626;-8.668;2023-11-25T05:16:53;102291.00;;;9.28;100.00
64352;BME280;50680;52.626;-8.668;2023-11-25T05:19:22;102285.84;;;9.25;100.00
64352;BME280;50680;52.626;-8.668;2023-11-25T05:21:50;102288.34;;;9.29;100.00
64352;BME280;50680;52.626;-8.668;2023-11-25T05:24:18;102285.75;;;9.28;100.00
64352;BME280;50680;52.626;-8.668;2023-11-25T05:26:46;102281.25;;;9.33;100.00
64352;BME280;50680;52.626;-8.668;2023-11-25T05:29:13;102277.94;;;9.26;100.00
64352;BME280;50680;52.626;-8.668;2023-11-25T05:31:41;102279.69;;;9.26;100.00
64352;BME280;50680;52.626;-8.668;2023-11-25T05:34:08;102279.69;;;9.26;100.00
64352;BME280;50680;52.626;-8.668;2023-11-25T05:36:35;102281.38;;;9.28;100.00
64352;BME280;50680;52.626;-8.668;2023-11-25T05:39:02;102277.03;;;9.27;100.00
64352;BME280;50680;52.626;-8.668;2023-11-25T05:41:33;102271.78;;;9.27;100.00
64352;BME280;50680;52.626;-8.668;2023-11-25T05:44:05;102273.44;;;9.31;100.00
64352;BME280;50680;52.626;-8.668;2023-11-25T05:46:34;102275.97;;;9.34;100.00
64352;BME280;50680;52.626;-8.668;2023-11-25T05:49:02;102274.88;;;9.41;100.00
64352;BME280;50680;52.626;-8.668;2023-11-25T05:51:36;102271.50;;;9.38;100.00
64352;BME280;50680;52.626;-8.668;2023-11-25T05:54:09;102275.84;;;9.37;100.00
64352;BME280;50680;52.626;-8.668;2023-11-25T05:56:40;102274.69;;;9.48;100.00
64352;BME280;50680;52.626;-8.668;2023-11-25T05:59:07;102267.88;;;9.42;100.00
64352;BME280;50680;52.626;-8.668;2023-11-25T06:01:37;102275.56;;;9.48;100.00
64352;BME280;50680;52.626;-8.668;2023-11-25T06:04:05;102265.25;;;9.42;100.00
64352;BME280;50680;52.626;-8.668;2023-11-25T06:06:32;102272.16;;;9.45;100.00
64352;BME280;50680;52.626;-8.668;2023-11-25T06:08:59;102274.84;;;9.43;100.00
64352;BME280;50680;52.626;-8.668;2023-11-25T06:11:27;102279.16;;;9.44;100.00
64352;BME280;50680;52.626;-8.668;2023-11-25T06:13:55;102280.97;;;9.42;100.00
64352;BME280;50680;52.626;-8.668;2023-11-25T06:16:23;102268.72;;;9.43;100.00
64352;BME280;50680;52.626;-8.668;2023-11-25T06:18:54;102275.78;;;9.40;100.00
64352;BME280;50680;52.626;-8.668;2023-11-25T06:21:21;102279.19;;;9.43;100.00
64352;BME280;50680;52.626;-8.668;2023-11-25T06:23:49;102269.13;;;9.29;100.00
64352;BME280;50680;52.626;-8.668;2023-11-25T06:26:17;102260.59;;;9.22;100.00
64352;BME280;50680;52.626;-8.668;2023-11-25T06:28:47;102261.22;;;9.30;100.00
64352;BME280;50680;52.626;-8.668;2023-11-25T06:31:14;102258.69;;;9.27;100.00
64352;BME280;50680;52.626;-8.668;2023-11-25T06:33:42;102267.28;;;9.32;100.00
64352;BME280;50680;52.626;-8.668;2023-11-25T06:36:09;102267.28;;;9.32;100.00
64352;BME280;50680;52.626;-8.668;2023-11-25T06:38:37;102252.41;;;9.34;100.00
64352;BME280;50680;52.626;-8.668;2023-11-25T06:41:04;102251.50;;;9.35;100.00
64352;BME280;50680;52.626;-8.668;2023-11-25T06:43:31;102256.41;;;9.46;100.00
64352;BME280;50680;52.626;-8.668;2023-11-25T06:45:58;102263.13;;;9.55;100.00
64352;BME280;50680;52.626;-8.668;2023-11-25T06:48:26;102258.00;;;9.52;100.00
64352;BME280;50680;52.626;-8.668;2023-11-25T06:50:58;102257.88;;;9.55;100.00
64352;BME280;50680;52.626;-8.668;2023-11-25T06:53:25;102257.38;;;9.44;100.00
64352;BME280;50680;52.626;-8.668;2023-11-25T06:55:52;102251.53;;;9.34;100.00
64352;BME280;50680;52.626;-8.668;2023-11-25T06:58:19;102248.16;;;9.30;100.00
64352;BME280;50680;52.626;-8.668;2023-11-25T07:00:48;102257.09;;;9.23;100.00
64352;BME280;50680;52.626;-8.668;2023-11-25T07:03:15;102257.09;;;9.23;100.00
64352;BME280;50680;52.626;-8.668;2023-11-25T07:05:43;102249.34;;;9.18;100.00
64352;BME280;50680;52.626;-8.668;2023-11-25T07:08:10;102252.75;;;9.22;100.00
64352;BME280;50680;52.626;-8.668;2023-11-25T07:10:37;102244.72;;;9.28;100.00
64352;BME280;50680;52.626;-8.668;2023-11-25T07:13:04;102243.97;;;9.25;100.00
64352;BME280;50680;52.626;-8.668;2023-11-25T07:15:32;102250.25;;;9.19;100.00
64352;BME280;50680;52.626;-8.668;2023-11-25T07:17:59;102250.31;;;9.16;100.00
64352;BME280;50680;52.626;-8.668;2023-11-25T07:20:26;102243.09;;;9.24;100.00
64352;BME280;50680;52.626;-8.668;2023-11-25T07:22:54;102242.19;;;9.25;100.00
64352;BME280;50680;52.626;-8.668;2023-11-25T07:25:21;102244.81;;;9.25;100.00
64352;BME280;50680;52.626;-8.668;2023-11-25T07:27:48;102246.63;;;9.23;100.00
64352;BME280;50680;52.626;-8.668;2023-11-25T07:30:16;102234.63;;;9.16;100.00
64352;BME280;50680;52.626;-8.668;2023-11-25T07:32:44;102230.31;;;9.13;100.00
64352;BME280;50680;52.626;-8.668;2023-11-25T07:35:11;102224.22;;;9.13;100.00
64352;BME280;50680;52.626;-8.668;2023-11-25T07:37:38;102228.66;;;9.11;100.00
64352;BME280;50680;52.626;-8.668;2023-11-25T07:40:07;102231.09;;;9.17;100.00
64352;BME280;50680;52.626;-8.668;2023-11-25T07:42:44;102224.88;;;9.21;100.00
64352;BME280;50680;52.626;-8.668;2023-11-25T07:45:12;102212.72;;;9.18;100.00
64352;BME280;50680;52.626;-8.668;2023-11-25T07:47:40;102218.91;;;9.16;100.00
64352;BME280;50680;52.626;-8.668;2023-11-25T07:50:11;102212.91;;;9.12;100.00
64352;BME280;50680;52.626;-8.668;2023-11-25T07:52:38;102210.34;;;9.11;100.00
64352;BME280;50680;52.626;-8.668;2023-11-25T07:55:05;102211.97;;;9.15;100.00
64352;BME280;50680;52.626;-8.668;2023-11-25T07:57:33;102228.56;;;9.14;100.00
64352;BME280;50680;52.626;-8.668;2023-11-25T08:00:00;102217.34;;;9.10;100.00
64352;BME280;50680;52.626;-8.668;2023-11-25T08:02:27;102224.16;;;9.16;100.00
64352;BME280;50680;52.626;-8.668;2023-11-25T08:04:54;102211.03;;;9.17;100.00
64352;BME280;50680;52.626;-8.668;2023-11-25T08:07:21;102211.78;;;9.21;100.00
64352;BME280;50680;52.626;-8.668;2023-11-25T08:09:50;102216.88;;;9.26;100.00
64352;BME280;50680;52.626;-8.668;2023-11-25T08:12:18;102203.91;;;9.22;100.00
64352;BME280;50680;52.626;-8.668;2023-11-25T08:14:45;102214.97;;;9.31;100.00
64352;BME280;50680;52.626;-8.668;2023-11-25T08:17:13;102215.13;;;9.26;100.00
64352;BME280;50680;52.626;-8.668;2023-11-25T08:19:41;102213.41;;;9.25;100.00
64352;BME280;50680;52.626;-8.668;2023-11-25T08:22:08;102214.25;;;9.26;100.00
64352;BME280;50680;52.626;-8.668;2023-11-25T08:24:35;102218.56;;;9.28;100.00
64352;BME280;50680;52.626;-8.668;2023-11-25T08:27:03;102214.31;;;9.24;100.00
64352;BME280;50680;52.626;-8.668;2023-11-25T08:29:29;102220.31;;;9.28;100.00
64352;BME280;50680;52.626;-8.668;2023-11-25T08:31:56;102212.44;;;9.29;100.00
64352;BME280;50680;52.626;-8.668;2023-11-25T08:34:23;102215.03;;;9.29;100.00
64352;BME280;50680;52.626;-8.668;2023-11-25T08:36:50;102207.91;;;9.34;100.00
64352;BME280;50680;52.626;-8.668;2023-11-25T08:39:20;102205.97;;;9.39;100.00
64352;BME280;50680;52.626;-8.668;2023-11-25T08:41:54;102207.00;;;9.35;100.00
64352;BME280;50680;52.626;-8.668;2023-11-25T08:44:23;102202.47;;;9.40;100.00
64352;BME280;50680;52.626;-8.668;2023-11-25T08:46:50;102203.16;;;9.47;100.00
64352;BME280;50680;52.626;-8.668;2023-11-25T08:49:18;102197.16;;;9.44;100.00
64352;BME280;50680;52.626;-8.668;2023-11-25T08:51:49;102196.94;;;9.50;100.00
64352;BME280;50680;52.626;-8.668;2023-11-25T08:54:17;102193.47;;;9.49;100.00
64352;BME280;50680;52.626;-8.668;2023-11-25T08:56:45;102186.34;;;9.54;100.00
64352;BME280;50680;52.626;-8.668;2023-11-25T08:59:13;102192.28;;;9.59;100.00
64352;BME280;50680;52.626;-8.668;2023-11-25T09:01:51;102187.94;;;9.58;100.00
64352;BME280;50680;52.626;-8.668;2023-11-25T09:04:20;102178.38;;;9.57;100.00
64352;BME280;50680;52.626;-8.668;2023-11-25T09:06:49;102182.56;;;9.63;100.00
64352;BME280;50680;52.626;-8.668;2023-11-25T09:09:18;102179.06;;;9.64;100.00
64352;BME280;50680;52.626;-8.668;2023-11-25T09:11:47;102182.97;;;9.77;100.00
64352;BME280;50680;52.626;-8.668;2023-11-25T09:14:17;102183.81;;;9.79;100.00
64352;BME280;50680;52.626;-8.668;2023-11-25T09:16:46;102171.41;;;9.85;100.00
64352;BME280;50680;52.626;-8.668;2023-11-25T09:19:13;102180.41;;;10.03;100.00
64352;BME280;50680;52.626;-8.668;2023-11-25T09:21:40;102181.06;;;10.09;100.00
64352;BME280;50680;52.626;-8.668;2023-11-25T09:24:08;102181.53;;;10.21;100.00
64352;BME280;50680;52.626;-8.668;2023-11-25T09:26:35;102178.72;;;10.27;100.00
64352;BME280;50680;52.626;-8.668;2023-11-25T09:29:02;102175.84;;;10.34;100.00
64352;BME280;50680;52.626;-8.668;2023-11-25T09:31:29;102171.34;;;10.38;100.00
64352;BME280;50680;52.626;-8.668;2023-11-25T09:33:56;102172.94;;;10.44;100.00
64352;BME280;50680;52.626;-8.668;2023-11-25T09:36:23;102165.47;;;10.57;100.00
64352;BME280;50680;52.626;-8.668;2023-11-25T09:38:52;102154.94;;;10.58;100.00
64352;BME280;50680;52.626;-8.668;2023-11-25T09:41:19;102159.03;;;10.65;100.00
64352;BME280;50680;52.626;-8.668;2023-11-25T09:43:47;102158.63;;;10.76;100.00
64352;BME280;50680;52.626;-8.668;2023-11-25T09:46:14;102161.94;;;10.81;100.00
64352;BME280;50680;52.626;-8.668;2023-11-25T09:48:43;102161.16;;;10.79;100.00
64352;BME280;50680;52.626;-8.668;2023-11-25T09:51:12;102159.56;;;10.75;100.00
64352;BME280;50680;52.626;-8.668;2023-11-25T09:53:42;102169.59;;;10.87;100.00
64352;BME280;50680;52.626;-8.668;2023-11-25T09:56:10;102173.94;;;10.88;100.00
64352;BME280;50680;52.626;-8.668;2023-11-25T09:58:38;102167.56;;;10.96;100.00
64352;BME280;50680;52.626;-8.668;2023-11-25T10:01:05;102159.38;;;11.03;100.00
64352;BME280;50680;52.626;-8.668;2023-11-25T10:03:34;102162.63;;;11.10;100.00
64352;BME280;50680;52.626;-8.668;2023-11-25T10:06:02;102166.97;;;11.11;100.00
64352;BME280;50680;52.626;-8.668;2023-11-25T10:08:29;102156.09;;;11.20;100.00
64352;BME280;50680;52.626;-8.668;2023-11-25T10:11:01;102164.28;;;11.13;100.00
64352;BME280;50680;52.626;-8.668;2023-11-25T10:13:35;102164.72;;;11.24;100.00
64352;BME280;50680;52.626;-8.668;2023-11-25T10:16:03;102168.94;;;11.28;100.00
64352;BME280;50680;52.626;-8.668;2023-11-25T10:18:30;102159.28;;;11.28;100.00
64352;BME280;50680;52.626;-8.668;2023-11-25T10:20:57;102170.22;;;11.40;100.00
64352;BME280;50680;52.626;-8.668;2023-11-25T10:23:27;102166.53;;;11.45;100.00
64352;BME280;50680;52.626;-8.668;2023-11-25T10:25:55;102168.28;;;11.45;100.00
64352;BME280;50680;52.626;-8.668;2023-11-25T10:28:26;102170.72;;;11.50;100.00
64352;BME280;50680;52.626;-8.668;2023-11-25T10:30:56;102172.72;;;11.43;100.00
64352;BME280;50680;52.626;-8.668;2023-11-25T10:33:24;102151.53;;;11.47;100.00
64352;BME280;50680;52.626;-8.668;2023-11-25T10:35:51;102156.25;;;11.61;100.00
64352;BME280;50680;52.626;-8.668;2023-11-25T10:38:19;102152.69;;;11.62;100.00
64352;BME280;50680;52.626;-8.668;2023-11-25T10:40:49;102152.44;;;11.69;100.00
64352;BME280;50680;52.626;-8.668;2023-11-25T10:43:19;102153.09;;;11.74;100.00
64352;BME280;50680;52.626;-8.668;2023-11-25T10:45:49;102150.22;;;11.80;100.00
64352;BME280;50680;52.626;-8.668;2023-11-25T10:48:27;102158.03;;;11.81;100.00
64352;BME280;50680;52.626;-8.668;2023-11-25T10:50:56;102147.69;;;11.78;100.00
64352;BME280;50680;52.626;-8.668;2023-11-25T10:53:30;102147.69;;;11.78;100.00
64352;BME280;50680;52.626;-8.668;2023-11-25T10:56:00;102145.56;;;11.86;100.00
64352;BME280;50680;52.626;-8.668;2023-11-25T10:58:28;102141.19;;;11.87;100.00
64352;BME280;50680;52.626;-8.668;2023-11-25T11:00:56;102148.88;;;11.92;100.00
64352;BME280;50680;52.626;-8.668;2023-11-25T11:03:57;102155.22;;;11.86;100.00
64352;BME280;50680;52.626;-8.668;2023-11-25T11:06:28;102142.31;;;12.02;100.00
64352;BME280;50680;52.626;-8.668;2023-11-25T11:08:59;102135.16;;;12.06;100.00
64352;BME280;50680;52.626;-8.668;2023-11-25T11:11:49;102136.63;;;11.92;100.00
64352;BME280;50680;52.626;-8.668;2023-11-25T11:14:19;102112.69;;;11.98;100.00
64352;BME280;50680;52.626;-8.668;2023-11-25T11:17:23;102124.44;;;12.10;100.00
64352;BME280;50680;52.626;-8.668;2023-11-25T11:19:58;102117.53;;;12.08;100.00
64352;BME280;50680;52.626;-8.668;2023-11-25T11:22:27;102105.97;;;12.12;100.00
64352;BME280;50680;52.626;-8.668;2023-11-25T11:25:10;102103.88;;;12.20;100.00
64352;BME280;50680;52.626;-8.668;2023-11-25T11:27:55;102107.06;;;12.27;100.00
64352;BME280;50680;52.626;-8.668;2023-11-25T11:33:03;102098.31;;;12.47;100.00
64352;BME280;50680;52.626;-8.668;2023-11-25T11:35:37;102099.31;;;12.44;100.00
64352;BME280;50680;52.626;-8.668;2023-11-25T11:38:27;102101.00;;;12.64;100.00
64352;BME280;50680;52.626;-8.668;2023-11-25T11:44:04;102089.84;;;12.78;100.00
64352;BME280;50680;52.626;-8.668;2023-11-25T11:46:33;102089.34;;;12.89;100.00
64352;BME280;50680;52.626;-8.668;2023-11-25T11:49:11;102089.91;;;12.95;100.00
64352;BME280;50680;52.626;-8.668;2023-11-25T11:51:59;102094.84;;;12.84;100.00
64352;BME280;50680;52.626;-8.668;2023-11-25T11:54:31;102079.31;;;12.97;100.00
64352;BME280;50680;52.626;-8.668;2023-11-25T11:57:05;102078.31;;;13.00;100.00
64352;BME280;50680;52.626;-8.668;2023-11-25T12:00:00;102079.81;;;13.05;100.00
64352;BME280;50680;52.626;-8.668;2023-11-25T12:02:31;102074.41;;;13.08;100.00
64352;BME280;50680;52.626;-8.668;2023-11-25T12:04:59;102075.16;;;13.10;100.00
64352;BME280;50680;52.626;-8.668;2023-11-25T12:07:27;102068.03;;;13.12;100.00
64352;BME280;50680;52.626;-8.668;2023-11-25T12:09:55;102059.72;;;13.03;100.00
64352;BME280;50680;52.626;-8.668;2023-11-25T12:12:23;102056.38;;;12.99;100.00
64352;BME280;50680;52.626;-8.668;2023-11-25T12:14:50;102049.84;;;12.89;100.00
64352;BME280;50680;52.626;-8.668;2023-11-25T12:17:20;102050.22;;;13.00;100.00
64352;BME280;50680;52.626;-8.668;2023-11-25T12:19:51;102044.72;;;13.05;100.00
64352;BME280;50680;52.626;-8.668;2023-11-25T12:22:18;102033.47;;;13.01;100.00
64352;BME280;50680;52.626;-8.668;2023-11-25T12:24:45;102034.50;;;13.16;100.00
64352;BME280;50680;52.626;-8.668;2023-11-25T12:27:12;102039.56;;;13.21;100.00
64352;BME280;50680;52.626;-8.668;2023-11-25T12:29:41;102035.22;;;13.20;100.00
64352;BME280;50680;52.626;-8.668;2023-11-25T12:32:08;102024.97;;;13.32;100.00
64352;BME280;50680;52.626;-8.668;2023-11-25T12:34:35;102021.94;;;13.40;100.00
64352;BME280;50680;52.626;-8.668;2023-11-25T12:37:02;102020.06;;;13.42;100.00
64352;BME280;50680;52.626;-8.668;2023-11-25T12:39:29;102020.63;;;13.49;100.00
64352;BME280;50680;52.626;-8.668;2023-11-25T12:41:56;102006.59;;;13.66;100.00
64352;BME280;50680;52.626;-8.668;2023-11-25T12:44:23;101998.94;;;13.77;100.00
64352;BME280;50680;52.626;-8.668;2023-11-25T12:47:00;101988.75;;;14.04;100.00
64352;BME280;50680;52.626;-8.668;2023-11-25T12:49:28;101993.63;;;14.28;100.00
64352;BME280;50680;52.626;-8.668;2023-11-25T12:51:56;101982.31;;;14.26;100.00
64352;BME280;50680;52.626;-8.668;2023-11-25T12:54:23;101984.97;;;14.42;100.00